createdAt,value
2019-05-29T00:01:21.266Z,0.80
2019-05-29T00:03:48.858Z,0.60
2019-05-29T00:06:19.076Z,0.70
2019-05-29T00:08:49.392Z,0.63
2019-05-29T00:11:19.614Z,0.50
2019-05-29T00:13:51.573Z,0.40
2019-05-29T00:16:21.813Z,0.47
2019-05-29T00:18:52.100Z,0.50
2019-05-29T00:21:22.366Z,0.50
2019-05-29T00:23:52.622Z,0.57
2019-05-29T00:26:23.303Z,0.67
2019-05-29T00:28:53.485Z,0.70
2019-05-29T00:31:23.746Z,0.50
2019-05-29T00:33:54.448Z,0.77
2019-05-29T00:36:24.702Z,0.60
2019-05-29T00:38:55.313Z,0.63
2019-05-29T00:41:26.034Z,0.70
2019-05-29T00:43:56.666Z,0.90
2019-05-29T00:46:26.865Z,0.60
2019-05-29T00:48:57.109Z,0.60
2019-05-29T00:51:27.368Z,0.63
2019-05-29T00:53:57.650Z,0.70
2019-05-29T00:56:28.186Z,0.70
2019-05-29T00:58:58.396Z,0.77
2019-05-29T01:01:28.945Z,0.60
2019-05-29T01:03:59.213Z,0.90
2019-05-29T01:06:29.433Z,0.47
2019-05-29T01:08:59.703Z,0.67
2019-05-29T01:11:29.916Z,0.90
2019-05-29T01:14:00.160Z,0.90
2019-05-29T01:16:30.420Z,1.20
2019-05-29T01:19:20.344Z,1.00
2019-05-29T01:21:50.649Z,1.10
2019-05-29T01:24:21.263Z,0.97
2019-05-29T01:26:51.853Z,1.23
2019-05-29T01:29:23.281Z,1.00
2019-05-29T01:31:53.673Z,0.83
2019-05-29T01:34:24.281Z,1.07
2019-05-29T01:36:54.522Z,1.00
2019-05-29T01:39:24.770Z,0.87
2019-05-29T01:41:55.226Z,0.80
2019-05-29T01:44:25.566Z,0.90
2019-05-29T01:46:55.872Z,0.77
2019-05-29T01:49:28.070Z,1.10
2019-05-29T01:51:59.437Z,0.90
2019-05-29T01:54:30.733Z,1.07
2019-05-29T01:57:01.032Z,0.90
2019-05-29T01:59:31.244Z,0.87
2019-05-29T02:02:01.727Z,0.80
2019-05-29T02:04:32.081Z,1.03
2019-05-29T02:07:02.417Z,0.80
2019-05-29T02:09:33.033Z,1.00
2019-05-29T02:12:03.291Z,0.83
2019-05-29T02:14:33.591Z,1.10
2019-05-29T02:19:36.666Z,1.07
2019-05-29T02:22:06.960Z,0.93
2019-05-29T02:24:37.539Z,0.90
2019-05-29T02:27:07.785Z,1.00
2019-05-29T02:29:38.094Z,1.10
2019-05-29T02:32:08.322Z,1.07
2019-05-29T02:34:38.605Z,1.20
2019-05-29T02:37:08.875Z,0.93
2019-05-29T02:39:40.074Z,1.23
2019-05-29T02:42:10.327Z,1.03
2019-05-29T02:44:40.634Z,1.00
2019-05-29T02:47:10.957Z,1.00
2019-05-29T02:49:41.578Z,1.13
2019-05-29T02:52:11.841Z,1.07
2019-05-29T02:54:42.248Z,1.33
2019-05-29T02:57:12.778Z,1.20
2019-05-29T02:59:44.102Z,1.27
2019-05-29T03:02:15.369Z,1.10
2019-05-29T03:04:45.693Z,1.47
2019-05-29T03:07:16.282Z,1.07
2019-05-29T03:09:47.052Z,1.10
2019-05-29T03:12:17.303Z,1.17
2019-05-29T03:14:47.878Z,1.20
2019-05-29T03:17:18.365Z,1.00
2019-05-29T03:19:48.674Z,1.10
2019-05-29T03:22:18.975Z,1.10
2019-05-29T03:24:49.185Z,1.10
2019-05-29T03:27:19.629Z,1.30
2019-05-29T03:29:49.888Z,1.20
2019-05-29T03:32:20.383Z,1.20
2019-05-29T03:34:50.756Z,1.20
2019-05-29T03:37:20.983Z,1.30
2019-05-29T03:39:51.302Z,1.37
2019-05-29T03:42:21.885Z,1.70
2019-05-29T03:44:52.188Z,1.30
2019-05-29T03:47:22.417Z,1.47
2019-05-29T03:49:53.066Z,1.47
2019-05-29T03:52:23.329Z,1.67
2019-05-29T03:54:53.540Z,1.30
2019-05-29T03:57:24.450Z,1.57
2019-05-29T03:59:55.285Z,1.50
2019-05-29T04:02:26.722Z,1.70
2019-05-29T04:04:56.960Z,1.70
2019-05-29T04:07:27.256Z,1.50
2019-05-29T04:09:57.551Z,1.30
2019-05-29T04:12:29.598Z,1.77
2019-05-29T04:15:00.366Z,1.70
2019-05-29T04:17:33.673Z,2.80
2019-05-29T04:20:03.901Z,1.80
2019-05-29T04:22:39.147Z,1.70
2019-05-29T04:25:10.216Z,1.80
2019-05-29T04:27:43.446Z,1.80
2019-05-29T04:30:14.087Z,2.00
2019-05-29T04:32:44.780Z,1.70
2019-05-29T04:35:15.063Z,1.60
2019-05-29T04:37:45.364Z,1.57
2019-05-29T04:40:15.701Z,1.80
2019-05-29T04:42:46.312Z,1.53
2019-05-29T04:45:17.574Z,1.50
2019-05-29T04:47:47.805Z,1.40
2019-05-29T04:50:18.003Z,1.60
2019-05-29T04:52:48.362Z,1.60
2019-05-29T04:55:18.639Z,1.50
2019-05-29T04:57:51.005Z,1.50
2019-05-29T05:00:21.521Z,1.90
2019-05-29T05:02:51.873Z,2.10
2019-05-29T05:05:22.486Z,1.77
2019-05-29T05:07:52.809Z,1.60
2019-05-29T05:10:48.008Z,1.53
2019-05-29T05:13:18.320Z,1.90
2019-05-29T05:15:49.793Z,1.90
2019-05-29T05:18:20.087Z,1.57
2019-05-29T05:20:50.393Z,1.53
2019-05-29T05:23:20.646Z,1.40
2019-05-29T05:25:50.819Z,1.40
2019-05-29T05:28:22.112Z,1.40
2019-05-29T05:30:52.400Z,1.17
2019-05-29T05:33:22.757Z,1.60
2019-05-29T05:35:52.978Z,1.50
2019-05-29T05:38:23.297Z,1.40
2019-05-29T05:40:53.502Z,1.60
2019-05-29T05:43:24.667Z,1.30
2019-05-29T05:45:55.145Z,1.50
2019-05-29T05:48:25.397Z,1.30
2019-05-29T05:50:55.645Z,1.63
2019-05-29T05:53:25.943Z,1.97
2019-05-29T05:55:56.194Z,1.67
2019-05-29T05:58:27.403Z,1.47
2019-05-29T06:00:57.700Z,1.63
2019-05-29T06:03:28.432Z,1.60
2019-05-29T06:05:59.035Z,1.30
2019-05-29T06:08:29.319Z,1.57
2019-05-29T06:10:59.897Z,1.30
2019-05-29T06:13:30.521Z,1.43
2019-05-29T06:16:00.748Z,1.90
2019-05-29T06:18:32.379Z,1.77
2019-05-29T06:21:02.801Z,1.47
2019-05-29T06:23:33.041Z,1.67
2019-05-29T06:26:03.440Z,1.60
2019-05-29T06:28:35.032Z,1.27
2019-05-29T06:31:05.283Z,1.43
2019-05-29T06:33:37.355Z,1.43
2019-05-29T06:36:07.720Z,1.73
2019-05-29T06:38:38.051Z,1.60
2019-05-29T06:41:08.616Z,1.50
2019-05-29T06:43:39.894Z,1.20
2019-05-29T06:46:10.349Z,1.70
2019-05-29T06:48:52.352Z,1.60
2019-05-29T06:51:12.650Z,1.60
2019-05-29T06:53:43.927Z,1.47
2019-05-29T06:56:14.828Z,1.60
2019-05-29T06:58:46.305Z,1.30
2019-05-29T07:01:16.495Z,1.90
2019-05-29T07:03:48.157Z,1.60
2019-05-29T07:06:18.675Z,1.77
2019-05-29T07:08:50.255Z,1.43
2019-05-29T07:11:21.780Z,1.57
2019-05-29T07:13:52.352Z,1.77
2019-05-29T07:16:23.290Z,1.67
2019-05-29T07:19:24.014Z,1.77
2019-05-29T07:21:25.890Z,1.90
2019-05-29T07:23:56.427Z,1.77
2019-05-29T07:26:26.626Z,1.80
2019-05-29T07:29:07.350Z,1.97
2019-05-29T07:31:28.899Z,1.70
2019-05-29T07:33:59.238Z,2.33
2019-05-29T07:36:29.447Z,2.20
2019-05-29T07:39:03.556Z,1.98
2019-05-29T07:41:33.158Z,2.20
2019-05-29T07:44:03.390Z,2.40
2019-05-29T07:46:35.651Z,2.00
2019-05-29T07:49:05.869Z,2.65
2019-05-29T07:51:38.168Z,2.83
2019-05-29T07:54:09.544Z,2.77
2019-05-29T07:56:40.343Z,2.72
2019-05-29T07:59:10.666Z,3.00
2019-05-29T08:01:40.940Z,2.42
2019-05-29T08:04:11.220Z,3.00
2019-05-29T08:06:48.312Z,2.45
2019-05-29T08:09:13.700Z,2.80
2019-05-29T08:11:43.912Z,2.87
2019-05-29T08:14:14.160Z,3.00
2019-05-29T08:16:44.461Z,2.85
2019-05-29T08:19:15.266Z,2.98
2019-05-29T08:21:46.480Z,3.60
2019-05-29T08:24:16.815Z,3.20
2019-05-29T08:26:48.853Z,3.62
2019-05-29T08:29:19.369Z,4.00
2019-05-29T08:31:50.892Z,3.83
2019-05-29T08:34:21.291Z,3.65
2019-05-29T08:37:05.834Z,3.90
2019-05-29T08:39:35.040Z,4.17
2019-05-29T08:42:21.293Z,4.60
2019-05-29T08:44:27.718Z,3.75
2019-05-29T08:47:09.707Z,4.05
2019-05-29T08:49:30.304Z,4.47
2019-05-29T08:52:11.311Z,4.62
2019-05-29T08:54:32.646Z,4.53
2019-05-29T08:57:02.818Z,5.12
2019-05-29T08:59:33.478Z,5.03
2019-05-29T09:02:03.781Z,4.53
2019-05-29T09:04:34.084Z,3.80
2019-05-29T09:07:05.298Z,3.78
2019-05-29T09:09:35.535Z,4.47
2019-05-29T09:12:05.778Z,4.20
2019-05-29T09:14:36.835Z,4.08
2019-05-29T09:17:07.239Z,4.05
2019-05-29T09:19:37.742Z,3.80
2019-05-29T09:22:07.936Z,3.40
2019-05-29T09:24:38.490Z,3.62
2019-05-29T09:27:08.810Z,4.03
2019-05-29T09:29:39.483Z,3.67
2019-05-29T09:32:09.760Z,4.05
2019-05-29T09:34:40.436Z,4.17
2019-05-29T09:37:10.721Z,3.67
2019-05-29T09:39:41.063Z,4.30
2019-05-29T09:42:11.262Z,4.12
2019-05-29T09:44:42.149Z,3.47
2019-05-29T09:47:12.385Z,4.53
2019-05-29T09:49:42.982Z,3.15
2019-05-29T09:52:13.227Z,3.33
2019-05-29T09:54:43.532Z,3.42
2019-05-29T09:57:15.458Z,3.22
2019-05-29T09:59:45.861Z,3.60
2019-05-29T10:02:16.193Z,3.90
2019-05-29T10:04:46.418Z,2.98
2019-05-29T10:07:16.783Z,3.15
2019-05-29T10:09:47.117Z,3.83
2019-05-29T10:12:17.351Z,3.58
2019-05-29T10:14:51.189Z,3.25
2019-05-29T10:17:19.975Z,3.60
2019-05-29T10:19:50.216Z,4.00
2019-05-29T10:22:20.494Z,3.45
2019-05-29T10:24:51.255Z,2.83
2019-05-29T10:27:21.640Z,2.83
2019-05-29T10:29:53.195Z,3.65
2019-05-29T10:32:23.844Z,3.02
2019-05-29T10:34:54.139Z,3.10
2019-05-29T10:37:24.774Z,3.10
2019-05-29T10:39:54.950Z,2.85
2019-05-29T10:42:25.276Z,3.15
2019-05-29T10:44:55.986Z,3.40
2019-05-29T10:47:26.254Z,3.08
2019-05-29T10:49:56.517Z,2.65
2019-05-29T10:52:27.212Z,3.15
2019-05-29T10:54:57.529Z,3.00
2019-05-29T10:57:27.863Z,2.50
2019-05-29T10:59:58.084Z,2.87
2019-05-29T11:02:28.311Z,3.27
2019-05-29T11:04:59.638Z,3.35
2019-05-29T11:07:30.028Z,3.00
2019-05-29T11:10:00.363Z,2.77
2019-05-29T11:12:30.684Z,3.22
2019-05-29T11:15:01.046Z,2.60
2019-05-29T11:17:31.334Z,2.27
2019-05-29T11:20:01.911Z,2.47
2019-05-29T11:22:32.181Z,2.90
2019-05-29T11:25:21.038Z,2.50
2019-05-29T11:27:34.605Z,2.55
2019-05-29T11:30:06.152Z,1.82
2019-05-29T11:32:36.444Z,2.15
2019-05-29T11:35:06.783Z,2.40
2019-05-29T11:37:37.001Z,2.72
2019-05-29T11:40:07.401Z,2.30
2019-05-29T11:42:37.647Z,2.10
2019-05-29T11:45:09.178Z,2.62
2019-05-29T11:47:39.437Z,2.92
2019-05-29T11:50:19.058Z,2.65
2019-05-29T11:52:43.849Z,3.25
2019-05-29T11:55:15.036Z,2.92
2019-05-29T11:57:45.953Z,2.50
2019-05-29T12:00:20.104Z,2.62
2019-05-29T12:02:49.220Z,2.35
2019-05-29T12:05:19.799Z,2.75
2019-05-29T12:07:51.494Z,2.85
2019-05-29T12:10:22.413Z,2.98
2019-05-29T12:12:53.420Z,3.42
2019-05-29T12:15:25.035Z,2.95
2019-05-29T12:18:08.703Z,3.12
2019-05-29T12:20:28.801Z,3.00
2019-05-29T12:23:20.355Z,2.90
2019-05-29T12:25:31.335Z,2.60
2019-05-29T12:28:03.234Z,2.37
2019-05-29T12:30:34.159Z,2.30
2019-05-29T12:33:04.436Z,2.10
2019-05-29T12:35:34.777Z,2.42
2019-05-29T12:38:05.159Z,2.52
2019-05-29T12:40:35.382Z,2.87
2019-05-29T12:43:05.981Z,3.50
2019-05-29T12:45:36.189Z,3.67
2019-05-29T12:48:13.223Z,3.98
2019-05-29T12:50:38.491Z,4.05
2019-05-29T12:53:09.120Z,3.83
2019-05-29T12:55:39.536Z,3.67
2019-05-29T12:58:09.818Z,4.42
2019-05-29T13:00:40.077Z,4.22
2019-05-29T13:03:10.784Z,3.85
2019-05-29T13:05:41.044Z,4.40
2019-05-29T13:08:11.342Z,4.85
2019-05-29T13:10:41.836Z,4.72
2019-05-29T13:13:12.117Z,3.72
2019-05-29T13:15:42.723Z,4.40
2019-05-29T13:18:13.040Z,4.28
2019-05-29T13:20:43.281Z,4.25
2019-05-29T13:23:13.631Z,4.17
2019-05-29T13:25:43.945Z,4.90
2019-05-29T13:28:14.278Z,4.87
2019-05-29T13:30:44.544Z,5.70
2019-05-29T13:33:14.810Z,4.87
2019-05-29T13:35:45.099Z,7.33
2019-05-29T13:38:15.442Z,6.67
2019-05-29T13:40:45.833Z,6.37
2019-05-29T13:43:16.288Z,5.60
2019-05-29T13:45:46.625Z,5.58
2019-05-29T13:48:16.966Z,5.03
2019-05-29T13:50:48.777Z,4.83
2019-05-29T13:53:19.351Z,5.72
2019-05-29T13:55:50.181Z,5.40
2019-05-29T13:58:20.765Z,5.90
2019-05-29T14:00:51.588Z,6.53
2019-05-29T14:03:22.201Z,6.17
2019-05-29T14:05:52.733Z,4.42
2019-05-29T14:08:22.938Z,5.78
2019-05-29T14:10:53.360Z,4.42
2019-05-29T14:13:23.586Z,4.28
2019-05-29T14:15:53.886Z,3.58
2019-05-29T14:18:25.414Z,3.45
2019-05-29T14:20:55.647Z,2.75
2019-05-29T14:23:25.921Z,2.67
2019-05-29T14:25:56.199Z,3.10
2019-05-29T14:28:26.540Z,4.47
2019-05-29T14:30:57.193Z,4.37
2019-05-29T14:33:27.468Z,4.17
2019-05-29T14:35:57.798Z,4.53
2019-05-29T14:38:28.411Z,3.90
2019-05-29T14:40:59.283Z,4.45
2019-05-29T14:43:29.546Z,3.70
2019-05-29T14:45:59.838Z,4.80
2019-05-29T14:48:30.186Z,4.70
2019-05-29T14:51:03.176Z,4.53
2019-05-29T14:53:33.388Z,5.10
2019-05-29T14:56:04.464Z,4.25
2019-05-29T14:58:34.766Z,3.52
2019-05-29T15:01:05.056Z,3.75
2019-05-29T15:03:36.647Z,4.10
2019-05-29T15:06:07.646Z,3.50
2019-05-29T15:08:37.935Z,3.92
2019-05-29T15:11:10.076Z,4.70
2019-05-29T15:13:40.674Z,4.90
2019-05-29T15:16:10.953Z,4.58
2019-05-29T15:18:41.192Z,4.47
2019-05-29T15:21:11.462Z,4.45
2019-05-29T15:23:41.753Z,4.30
2019-05-29T15:26:12.060Z,3.87
2019-05-29T15:28:43.096Z,4.20
2019-05-29T15:31:14.638Z,3.37
2019-05-29T15:33:46.088Z,3.80
2019-05-29T15:36:16.950Z,3.97
2019-05-29T15:38:47.234Z,3.90
2019-05-29T15:41:17.510Z,4.75
2019-05-29T15:43:49.381Z,4.75
2019-05-29T15:46:19.802Z,4.15
2019-05-29T15:48:50.422Z,3.77
2019-05-29T15:51:21.881Z,3.62
2019-05-29T15:53:52.172Z,3.22
2019-05-29T15:56:28.047Z,3.87
2019-05-29T15:58:54.401Z,3.30
2019-05-29T16:01:24.644Z,4.30
2019-05-29T16:03:54.913Z,3.00
2019-05-29T16:06:25.176Z,2.80
2019-05-29T16:08:55.900Z,2.58
2019-05-29T16:11:26.131Z,3.92
2019-05-29T16:13:56.414Z,3.35
2019-05-29T16:16:27.041Z,3.33
2019-05-29T16:19:00.426Z,3.92
2019-05-29T16:21:29.299Z,3.65
2019-05-29T16:24:00.794Z,3.50
2019-05-29T16:26:31.060Z,3.10
2019-05-29T16:29:01.658Z,3.45
2019-05-29T16:31:32.202Z,3.50
2019-05-29T16:34:02.633Z,2.62
2019-05-29T16:36:32.973Z,2.80
2019-05-29T16:39:03.374Z,2.80
2019-05-29T16:41:35.265Z,3.20
2019-05-29T16:44:05.611Z,2.50
2019-05-29T16:46:35.944Z,2.55
2019-05-29T16:49:06.191Z,3.12
2019-05-29T16:51:36.863Z,2.60
2019-05-29T16:54:07.120Z,2.77
2019-05-29T16:56:37.448Z,2.55
2019-05-29T16:59:08.177Z,2.57
2019-05-29T17:01:38.784Z,2.50
2019-05-29T17:04:09.438Z,2.75
2019-05-29T17:06:40.105Z,2.53
2019-05-29T17:09:10.742Z,2.33
2019-05-29T17:11:41.093Z,2.55
2019-05-29T17:14:11.710Z,1.65
2019-05-29T17:16:41.970Z,1.25
2019-05-29T17:19:12.549Z,1.67
2019-05-29T17:21:43.217Z,1.05
2019-05-29T17:24:14.630Z,0.98
2019-05-29T17:26:45.110Z,1.42
2019-05-29T17:29:16.771Z,1.40
2019-05-29T17:31:47.212Z,1.20
2019-05-29T17:34:17.481Z,1.20
2019-05-29T17:36:48.622Z,1.05
2019-05-29T17:39:20.326Z,1.05
2019-05-29T17:41:51.286Z,1.42
2019-05-29T17:44:21.530Z,1.00
2019-05-29T17:46:51.888Z,1.10
2019-05-29T17:49:32.267Z,1.60
2019-05-29T17:51:54.493Z,1.10
2019-05-29T17:54:26.130Z,1.00
2019-05-29T17:56:58.665Z,1.40
2019-05-29T17:59:30.753Z,1.50
2019-05-29T18:02:01.159Z,1.45
2019-05-29T18:04:31.379Z,1.72
2019-05-29T18:07:01.718Z,3.12
2019-05-29T18:09:32.587Z,2.20
2019-05-29T18:12:03.134Z,1.15
2019-05-29T18:14:33.415Z,1.50
2019-05-29T18:17:04.866Z,2.05
2019-05-29T18:19:35.220Z,2.00
2019-05-29T18:22:05.490Z,1.85
2019-05-29T18:24:35.897Z,2.17
2019-05-29T18:27:06.409Z,1.47
2019-05-29T18:29:36.770Z,1.32
2019-05-29T18:32:07.005Z,1.20
2019-05-29T18:34:37.692Z,1.80
2019-05-29T18:37:07.981Z,1.87
2019-05-29T18:39:39.630Z,2.02
2019-05-29T18:42:09.888Z,2.05
2019-05-29T18:44:40.847Z,1.60
2019-05-29T18:47:11.115Z,1.70
2019-05-29T18:49:41.386Z,1.60
2019-05-29T18:52:11.667Z,1.65
2019-05-29T18:54:41.937Z,2.02
2019-05-29T18:57:15.691Z,1.80
2019-05-29T18:59:44.396Z,1.52
2019-05-29T19:02:14.771Z,1.77
2019-05-29T19:04:45.066Z,1.60
2019-05-29T19:07:15.408Z,1.80
2019-05-29T19:09:45.767Z,1.52
2019-05-29T19:12:16.240Z,1.60
2019-05-29T19:14:46.497Z,1.20
2019-05-29T19:17:16.717Z,1.50
2019-05-29T19:19:47.058Z,1.80
2019-05-29T19:22:17.348Z,2.75
2019-05-29T19:24:47.701Z,3.12
2019-05-29T19:27:31.045Z,2.40
2019-05-29T19:29:50.532Z,2.00
2019-05-29T19:32:20.739Z,1.90
2019-05-29T19:34:51.019Z,2.25
2019-05-29T19:37:23.665Z,1.82
2019-05-29T19:39:55.665Z,1.92
2019-05-29T19:42:26.180Z,1.95
2019-05-29T19:44:56.506Z,1.70
2019-05-29T19:47:28.592Z,2.15
2019-05-29T19:49:58.887Z,2.12
2019-05-29T19:52:29.177Z,1.67
2019-05-29T19:54:59.443Z,1.87
2019-05-29T19:57:46.541Z,2.10
2019-05-29T20:00:03.163Z,2.47
2019-05-29T20:02:34.696Z,2.33
2019-05-29T20:05:05.831Z,2.10
2019-05-29T20:07:37.562Z,2.10
2019-05-29T20:10:08.133Z,2.20
2019-05-29T20:12:38.475Z,2.55
2019-05-29T20:15:09.119Z,1.75
2019-05-29T20:17:39.488Z,1.70
2019-05-29T20:20:11.519Z,1.57
2019-05-29T20:22:41.767Z,1.70
2019-05-29T20:25:13.788Z,1.40
2019-05-29T20:27:44.857Z,1.62
2019-05-29T20:30:18.997Z,1.72
2019-05-29T20:32:49.296Z,1.87
2019-05-29T20:35:19.900Z,1.85
2019-05-29T20:37:50.279Z,1.80
2019-05-29T20:40:20.753Z,1.87
2019-05-29T20:42:51.149Z,2.30
2019-05-29T20:45:21.398Z,2.30
2019-05-29T20:47:51.598Z,2.25
2019-05-29T20:50:21.976Z,1.98
2019-05-29T20:52:52.256Z,1.90
2019-05-29T20:55:22.912Z,1.80
2019-05-29T20:57:53.634Z,1.77
2019-05-29T21:00:23.891Z,1.77
2019-05-29T21:02:54.130Z,1.80
2019-05-29T21:05:24.419Z,2.37
2019-05-29T21:07:54.705Z,2.20
2019-05-29T21:10:24.899Z,2.47
2019-05-29T21:12:55.228Z,2.22
2019-05-29T21:15:25.813Z,1.83
2019-05-29T21:17:56.085Z,2.30
2019-05-29T21:20:29.085Z,2.03
2019-05-29T21:22:58.363Z,2.30
2019-05-29T21:25:28.569Z,2.00
2019-05-29T21:27:58.817Z,2.47
2019-05-29T21:30:29.174Z,2.63
2019-05-29T21:32:59.460Z,2.10
2019-05-29T21:35:29.755Z,2.20
2019-05-29T21:38:00.354Z,2.27
2019-05-29T21:40:30.601Z,2.10
2019-05-29T21:43:00.865Z,2.33
2019-05-29T21:45:31.369Z,2.30
2019-05-29T21:48:01.995Z,2.57
2019-05-29T21:50:32.343Z,2.43
2019-05-29T21:53:02.669Z,2.53
2019-05-29T21:55:33.411Z,2.80
2019-05-29T21:58:04.004Z,2.57
2019-05-29T22:00:48.196Z,2.70
2019-05-29T22:03:20.432Z,2.60
2019-05-29T22:05:50.850Z,2.03
2019-05-29T22:08:21.121Z,2.23
2019-05-29T22:10:51.581Z,2.30
2019-05-29T22:13:21.867Z,2.57
2019-05-29T22:15:52.636Z,2.53
2019-05-29T22:18:23.095Z,2.40
2019-05-29T22:20:53.442Z,2.40
2019-05-29T22:23:23.667Z,2.80
2019-05-29T22:25:55.299Z,2.33
2019-05-29T22:28:25.561Z,2.23
2019-05-29T22:30:55.774Z,2.47
2019-05-29T22:33:25.965Z,2.50
2019-05-29T22:35:57.497Z,2.30
2019-05-29T22:38:27.773Z,2.43
2019-05-29T22:40:58.261Z,2.77
2019-05-29T22:43:28.730Z,2.70
2019-05-29T22:45:59.735Z,2.67
2019-05-29T22:48:29.988Z,2.37
2019-05-29T22:51:00.349Z,2.80
2019-05-29T22:53:31.134Z,2.40
2019-05-29T22:56:02.038Z,2.60
2019-05-29T22:58:32.417Z,2.63
2019-05-29T23:01:03.031Z,2.60
2019-05-29T23:03:33.290Z,2.30
2019-05-29T23:06:03.544Z,2.40
2019-05-29T23:08:34.702Z,2.60
2019-05-29T23:11:04.999Z,2.60
2019-05-29T23:13:35.584Z,2.93
2019-05-29T23:16:05.814Z,3.03
2019-05-29T23:18:36.017Z,2.93
2019-05-29T23:21:06.361Z,3.27
2019-05-29T23:23:36.568Z,2.83
2019-05-29T23:26:07.179Z,2.90
2019-05-29T23:28:37.445Z,2.90
2019-05-29T23:31:07.928Z,2.90
2019-05-29T23:33:38.458Z,3.00
2019-05-29T23:36:08.745Z,2.73
2019-05-29T23:38:38.974Z,3.20
2019-05-29T23:41:09.204Z,3.63
2019-05-29T23:43:39.548Z,3.30
2019-05-29T23:46:09.741Z,3.93
2019-05-29T23:48:39.963Z,3.97
2019-05-29T23:51:10.532Z,4.20
2019-05-29T23:53:40.811Z,3.83
2019-05-29T23:56:11.050Z,4.22
2019-05-29T23:58:41.366Z,3.90
